Time;durP1;ratioP1;P1;durP2;ratioP2;P2;SDS_P1;SDS_P2;PMS_P1;PMS_P2;Temp;Humidity;BMP_temperature;BMP_pressure;BME280_temperature;BME280_humidity;BME280_pressure;Samples;Min_cycle;Max_cycle;Signal;HPM_P1;HPM_P2
2023/04/09 00:01:13;;;;;;;22.27;18.30;;;;;;;3.03;nan;97669.94;4953205;28;20921;-65
2023/04/09 00:03:41;;;;;;;14.67;13.00;;;;;;;2.93;nan;97652.47;4912592;28;20217;-65
2023/04/09 00:06:11;;;;;;;14.00;12.57;;;;;;;3.05;nan;97669.81;4927329;28;20981;-66
2023/04/09 00:08:39;;;;;;;14.67;12.80;;;;;;;3.03;nan;97672.56;4951096;28;20486;-65
2023/04/09 00:11:06;;;;;;;14.13;12.73;;;;;;;2.98;nan;97660.78;4951795;28;20230;-65
2023/04/09 00:13:34;;;;;;;12.23;11.03;;;;;;;2.97;nan;97670.41;4958749;28;20210;-65
2023/04/09 00:16:06;;;;;;;13.53;12.17;;;;;;;2.95;nan;97674.94;4953198;28;20214;-65
2023/04/09 00:18:34;;;;;;;14.30;13.00;;;;;;;2.85;nan;97664.41;4955146;28;20214;-66
2023/04/09 00:21:02;;;;;;;13.63;12.47;;;;;;;2.94;nan;97678.53;4924023;28;20680;-65
2023/04/09 00:23:31;;;;;;;13.17;12.00;;;;;;;2.96;nan;97674.00;4924885;28;20284;-65
2023/04/09 00:25:59;;;;;;;12.57;11.00;;;;;;;2.97;nan;97667.78;4949205;28;20336;-65
2023/04/09 00:28:26;;;;;;;12.90;11.70;;;;;;;3.00;nan;97675.41;4953837;28;20216;-64
2023/04/09 00:30:54;;;;;;;13.20;12.00;;;;;;;3.03;nan;97669.09;4947023;28;20946;-65
2023/04/09 00:33:22;;;;;;;13.77;12.57;;;;;;;2.97;nan;97662.56;4956420;28;20311;-67
2023/04/09 00:35:49;;;;;;;13.37;12.13;;;;;;;2.96;nan;97649.63;4907187;28;21100;-68
2023/04/09 00:38:17;;;;;;;12.60;11.50;;;;;;;3.02;nan;97662.19;4925099;28;20748;-67
2023/04/09 00:40:48;;;;;;;13.30;12.10;;;;;;;3.00;nan;97664.94;4953686;28;20226;-68
2023/04/09 00:43:16;;;;;;;13.33;12.13;;;;;;;2.90;nan;97653.56;4955984;28;20685;-68
2023/04/09 00:45:45;;;;;;;22.90;20.50;;;;;;;2.94;nan;97654.97;4951918;28;20734;-68
2023/04/09 00:48:13;;;;;;;24.43;21.13;;;;;;;2.94;nan;97654.16;4953167;28;20217;-68
2023/04/09 00:50:41;;;;;;;19.57;17.63;;;;;;;2.96;nan;97650.44;4912211;28;20295;-68
2023/04/09 00:53:10;;;;;;;17.33;15.63;;;;;;;2.85;nan;97643.47;4916570;28;21599;-65
2023/04/09 00:55:40;;;;;;;14.80;13.30;;;;;;;2.65;nan;97645.06;4948157;28;20444;-65
2023/04/09 00:58:09;;;;;;;13.80;12.40;;;;;;;2.53;nan;97666.94;4941419;28;20394;-64
2023/04/09 01:00:36;;;;;;;12.37;11.17;;;;;;;2.34;nan;97664.94;4952528;28;20216;-65
2023/04/09 01:03:05;;;;;;;12.20;11.20;;;;;;;2.19;nan;97669.59;4950439;28;20486;-65
2023/04/09 01:05:40;;;;;;;12.33;11.13;;;;;;;2.09;nan;97666.88;4911403;28;20378;-64
2023/04/09 01:08:13;;;;;;;13.43;11.50;;;;;;;1.98;nan;97668.50;4922081;28;21785;-66
2023/04/09 01:10:43;;;;;;;12.60;11.40;;;;;;;1.94;nan;97666.28;4953557;28;20214;-66
2023/04/09 01:13:15;;;;;;;13.30;11.93;;;;;;;1.80;nan;97667.31;4953740;28;20233;-66
2023/04/09 01:15:47;;;;;;;14.40;12.93;;;;;;;1.70;nan;97665.38;4952444;28;20206;-66
2023/04/09 01:18:19;;;;;;;12.93;11.70;;;;;;;1.65;nan;97683.19;4954425;28;20670;-66
2023/04/09 01:20:52;;;;;;;13.70;12.40;;;;;;;1.53;nan;97668.44;4920247;28;21033;-65
2023/04/09 01:23:29;;;;;;;13.93;12.63;;;;;;;1.48;nan;97670.56;4924346;28;20614;-65
2023/04/09 01:26:03;;;;;;;13.67;12.37;;;;;;;1.39;nan;97677.31;4951344;28;20544;-64
2023/04/09 01:28:35;;;;;;;13.87;12.40;;;;;;;1.35;nan;97683.69;4957352;28;20485;-65
2023/04/09 01:31:05;;;;;;;15.43;12.40;;;;;;;1.27;nan;97686.88;4953624;28;20938;-64
2023/04/09 01:33:34;;;;;;;13.10;11.87;;;;;;;1.19;nan;97678.78;4951617;28;20224;-65
2023/04/09 01:36:04;;;;;;;13.63;12.37;;;;;;;1.19;nan;97684.00;4909152;28;21899;-64
2023/04/09 01:38:33;;;;;;;13.87;12.43;;;;;;;1.06;nan;97671.00;4954646;28;20209;-64
2023/04/09 01:41:03;;;;;;;13.90;12.60;;;;;;;1.05;nan;97678.00;4924711;28;20374;-65
2023/04/09 01:43:33;;;;;;;13.27;12.00;;;;;;;0.98;nan;97685.44;4955301;28;20648;-64
2023/04/09 01:46:02;;;;;;;14.37;12.97;;;;;;;1.01;nan;97676.56;4938800;28;20428;-65
2023/04/09 01:48:30;;;;;;;14.03;12.57;;;;;;;0.94;nan;97677.94;4956007;28;20212;-64
2023/04/09 01:50:58;;;;;;;14.40;12.90;;;;;;;0.97;nan;97682.97;4950592;28;20478;-64
2023/04/09 01:53:27;;;;;;;12.63;11.53;;;;;;;0.86;nan;97679.34;4911359;28;20315;-63
2023/04/09 01:55:55;;;;;;;15.97;14.27;;;;;;;0.93;nan;97679.72;4922214;28;20500;-64
2023/04/09 01:58:24;;;;;;;15.30;13.70;;;;;;;0.83;nan;97682.16;4953606;28;20579;-64
2023/04/09 02:00:57;;;;;;;15.97;14.27;;;;;;;0.78;nan;97679.06;4922487;28;20602;-63
2023/04/09 02:03:26;;;;;;;15.77;14.27;;;;;;;0.75;nan;97683.66;4951124;28;20369;-65
2023/04/09 02:05:57;;;;;;;14.37;12.90;;;;;;;0.70;nan;97691.81;4953073;28;20221;-64
2023/04/09 02:08:25;;;;;;;14.33;12.83;;;;;;;0.67;nan;97702.47;4907855;28;20334;-65
2023/04/09 02:10:56;;;;;;;15.70;14.03;;;;;;;0.68;nan;97696.31;4922985;28;20284;-64
2023/04/09 02:13:25;;;;;;;16.07;14.37;;;;;;;0.67;nan;97694.66;4950918;28;20537;-64
2023/04/09 02:15:56;;;;;;;15.30;13.77;;;;;;;0.71;nan;97709.94;4949876;28;20209;-64
2023/04/09 02:18:26;;;;;;;14.97;13.37;;;;;;;0.70;nan;97717.91;4949510;28;20209;-65
2023/04/09 02:20:54;;;;;;;15.73;14.13;;;;;;;0.65;nan;97704.34;4953168;28;20240;-64
2023/04/09 02:23:21;;;;;;;15.53;13.93;;;;;;;0.65;nan;97713.00;4911610;28;20716;-64
2023/04/09 02:25:49;;;;;;;13.50;12.00;;;;;;;0.57;nan;97703.13;4918698;28;20739;-65
2023/04/09 02:28:17;;;;;;;13.97;12.67;;;;;;;0.56;nan;97711.03;4954283;28;20211;-65
2023/04/09 02:30:44;;;;;;;12.53;11.40;;;;;;;0.52;nan;97718.25;4950728;28;20426;-65
2023/04/09 02:33:14;;;;;;;13.40;12.10;;;;;;;0.48;nan;97718.56;4951793;28;20598;-66
2023/04/09 02:35:41;;;;;;;13.43;12.13;;;;;;;0.52;nan;97715.63;4952131;28;20640;-66
2023/04/09 02:38:12;;;;;;;13.70;12.40;;;;;;;0.55;nan;97736.28;4950803;28;20211;-65
2023/04/09 02:40:40;;;;;;;13.17;11.90;;;;;;;0.49;nan;97735.88;4897502;28;21132;-65
2023/04/09 02:43:09;;;;;;;14.77;13.40;;;;;;;0.47;nan;97735.97;4956157;28;20253;-65
2023/04/09 02:45:36;;;;;;;14.27;12.77;;;;;;;0.42;nan;97733.72;4953655;28;20340;-66
2023/04/09 02:48:05;;;;;;;16.63;14.97;;;;;;;0.44;nan;97738.81;4951775;28;20213;-64
2023/04/09 02:50:33;;;;;;;15.00;13.50;;;;;;;0.43;nan;97742.34;4950473;28;20408;-65
2023/04/09 02:53:01;;;;;;;15.60;14.10;;;;;;;0.39;nan;97738.28;4950015;28;20206;-65
2023/04/09 02:55:29;;;;;;;15.60;14.00;;;;;;;0.34;nan;97743.81;4894952;28;20602;-65
2023/04/09 02:57:56;;;;;;;15.83;14.23;;;;;;;0.43;nan;97738.00;4925439;28;20566;-65
2023/04/09 03:00:24;;;;;;;16.90;15.00;;;;;;;0.52;nan;97739.09;4943807;28;20705;-60
2023/04/09 03:02:52;;;;;;;17.77;16.03;;;;;;;-148.82;100.00;60434.72;4962638;28;20360;-57
2023/04/09 03:05:20;;;;;;;22.17;16.67;;;;;;;0.61;nan;97734.22;4977447;28;20266;-59
2023/04/09 03:07:49;;;;;;;20.87;16.97;;;;;;;0.60;nan;97732.53;4961065;28;20777;-60
2023/04/09 03:10:17;;;;;;;18.87;16.77;;;;;;;0.51;nan;97721.78;4942796;28;20395;-66
2023/04/09 03:12:46;;;;;;;15.90;14.40;;;;;;;0.45;nan;97722.22;4948953;28;20224;-66
2023/04/09 03:15:14;;;;;;;16.20;14.50;;;;;;;0.36;nan;97728.09;4983956;28;21575;-65
2023/04/09 03:17:41;;;;;;;15.37;13.87;;;;;;;0.25;nan;97727.06;4977368;28;20377;-67
2023/04/09 03:20:10;;;;;;;14.47;12.97;;;;;;;0.11;nan;97730.59;4981773;28;20224;-68
2023/04/09 03:22:38;;;;;;;15.50;13.83;;;;;;;0.05;nan;97732.78;4964354;28;20767;-68
2023/04/09 03:25:08;;;;;;;13.73;12.43;;;;;;;0.05;nan;97717.16;4935883;28;20216;-68
2023/04/09 03:27:36;;;;;;;19.77;13.77;;;;;;;0.13;nan;97730.47;4934598;28;20880;-65
2023/04/09 03:30:04;;;;;;;15.23;13.73;;;;;;;0.15;nan;97731.22;4979364;28;20223;-66
2023/04/09 03:32:32;;;;;;;16.87;15.13;;;;;;;0.15;nan;97733.81;4959014;28;21143;-65
2023/04/09 03:35:00;;;;;;;16.70;14.60;;;;;;;0.11;nan;97733.22;4977239;28;20587;-67
2023/04/09 03:37:28;;;;;;;14.77;13.27;;;;;;;0.13;nan;97720.06;4970459;28;20424;-66
2023/04/09 03:39:55;;;;;;;16.03;14.43;;;;;;;0.18;nan;97728.38;4968360;28;20507;-66
2023/04/09 03:42:25;;;;;;;14.87;13.37;;;;;;;0.25;nan;97721.84;4937500;28;20787;-66
2023/04/09 03:44:53;;;;;;;16.13;14.40;;;;;;;0.30;nan;97723.28;4951750;28;20662;-66
2023/04/09 03:47:21;;;;;;;17.07;15.33;;;;;;;0.30;nan;97723.28;4934802;28;20249;-66
2023/04/09 03:49:49;;;;;;;15.83;14.23;;;;;;;0.35;nan;97718.59;4953966;28;20669;-65
2023/04/09 03:52:17;;;;;;;16.93;15.13;;;;;;;0.36;nan;97721.06;4948922;28;20633;-65
2023/04/09 03:54:44;;;;;;;16.20;14.60;;;;;;;0.38;nan;97719.22;4924266;28;20210;-67
2023/04/09 03:57:12;;;;;;;19.63;17.07;;;;;;;0.43;nan;97717.13;4915944;28;20697;-65
2023/04/09 03:59:41;;;;;;;18.90;16.17;;;;;;;0.46;nan;97713.47;4928605;28;20217;-65
2023/04/09 04:02:09;;;;;;;19.30;17.30;;;;;;;0.42;nan;97715.47;4939026;28;20577;-66
2023/04/09 04:04:37;;;;;;;20.43;17.17;;;;;;;0.39;nan;97720.03;4954747;28;20206;-65
2023/04/09 04:07:05;;;;;;;18.83;16.83;;;;;;;0.40;nan;97719.94;4946740;28;20228;-66
2023/04/09 04:09:33;;;;;;;17.00;15.20;;;;;;;0.37;nan;97717.53;4930388;28;20225;-66
2023/04/09 04:12:02;;;;;;;18.50;16.60;;;;;;;0.38;nan;97713.16;4904819;28;20447;-66
2023/04/09 04:14:30;;;;;;;22.02;19.63;;;;;;;0.43;nan;97717.13;4936475;28;20440;-64
2023/04/09 04:16:59;;;;;;;19.33;17.33;;;;;;;0.49;nan;97722.84;4919700;28;20217;-65
2023/04/09 04:19:26;;;;;;;18.27;16.47;;;;;;;0.53;nan;97726.91;4927523;28;20212;-66
2023/04/09 04:21:54;;;;;;;18.17;16.20;;;;;;;0.53;nan;97729.50;4947331;28;20760;-66
2023/04/09 04:24:22;;;;;;;17.33;15.63;;;;;;;0.50;nan;97737.56;4955851;28;20905;-66
2023/04/09 04:26:50;;;;;;;17.80;13.97;;;;;;;0.44;nan;97738.81;4941806;28;20397;-65
2023/04/09 04:29:18;;;;;;;17.93;16.10;;;;;;;0.39;nan;97735.69;4922460;28;20435;-66
2023/04/09 04:31:45;;;;;;;18.27;16.40;;;;;;;0.45;nan;97734.44;4929324;28;20241;-66
2023/04/09 04:34:15;;;;;;;17.87;15.93;;;;;;;0.39;nan;97739.16;4938813;28;20423;-66
2023/04/09 04:36:43;;;;;;;18.63;16.50;;;;;;;0.37;nan;97746.22;4941114;28;20570;-66
2023/04/09 04:39:11;;;;;;;16.97;15.17;;;;;;;0.31;nan;97741.41;4950586;28;20672;-66
2023/04/09 04:41:38;;;;;;;17.00;15.27;;;;;;;0.26;nan;97751.34;4947626;28;20234;-66
2023/04/09 04:44:06;;;;;;;17.67;14.87;;;;;;;0.19;nan;97758.75;4892677;28;20490;-66
2023/04/09 04:46:34;;;;;;;16.43;14.83;;;;;;;0.21;nan;97751.66;4954404;28;20212;-65
2023/04/09 04:49:02;;;;;;;17.00;15.40;;;;;;;0.15;nan;97754.66;4914046;28;20556;-65
2023/04/09 04:51:31;;;;;;;16.30;14.70;;;;;;;0.06;nan;97745.72;4939414;28;20245;-66
2023/04/09 04:53:59;;;;;;;16.83;15.13;;;;;;;0.05;nan;97751.88;4949514;28;20243;-65
2023/04/09 04:56:27;;;;;;;17.97;16.07;;;;;;;-0.05;nan;97738.63;4949674;28;20217;-65
2023/04/09 04:58:55;;;;;;;18.43;16.53;;;;;;;0.01;nan;97752.16;4882230;28;20214;-65
2023/04/09 05:01:23;;;;;;;16.93;15.23;;;;;;;0.01;nan;97763.44;4953826;28;20677;-65
2023/04/09 05:03:50;;;;;;;16.47;14.77;;;;;;;0.09;nan;97757.69;4928092;28;20311;-67
2023/04/09 05:06:19;;;;;;;19.20;17.13;;;;;;;0.26;nan;97760.00;4927630;28;20966;-67
2023/04/09 05:08:48;;;;;;;18.67;16.40;;;;;;;0.41;nan;97765.09;4956769;28;20205;-65
2023/04/09 05:11:15;;;;;;;17.77;15.93;;;;;;;0.54;nan;97765.91;4952343;28;20234;-65
2023/04/09 05:13:43;;;;;;;17.80;16.00;;;;;;;0.56;nan;97750.16;4916816;28;20209;-66
2023/04/09 05:16:17;;;;;;;16.20;14.60;;;;;;;0.62;nan;97760.16;4955073;28;20221;-66
2023/04/09 05:18:44;;;;;;;18.20;16.30;;;;;;;0.65;nan;97757.34;4931129;28;20213;-66
2023/04/09 05:21:12;;;;;;;17.67;15.87;;;;;;;0.67;nan;97750.25;4933157;28;20783;-66
2023/04/09 05:23:41;;;;;;;17.60;15.83;;;;;;;0.69;nan;97747.53;4950244;28;20296;-65
2023/04/09 05:26:10;;;;;;;18.47;16.53;;;;;;;0.72;nan;97752.53;4954717;28;20229;-66
2023/04/09 05:28:38;;;;;;;17.13;15.33;;;;;;;0.78;nan;97748.66;4945080;28;20934;-64
2023/04/09 05:31:10;;;;;;;17.83;16.17;;;;;;;0.84;nan;97749.06;4925946;28;20237;-66
2023/04/09 05:33:38;;;;;;;18.20;16.40;;;;;;;0.89;nan;97753.09;4929118;28;20285;-66
2023/04/09 05:36:06;;;;;;;18.27;16.37;;;;;;;0.89;nan;97747.88;4954828;28;20725;-67
2023/04/09 05:38:34;;;;;;;17.37;15.60;;;;;;;0.98;nan;97755.91;4942111;28;20202;-66
2023/04/09 05:41:02;;;;;;;16.90;15.10;;;;;;;0.96;nan;97747.34;4956483;28;20454;-64
2023/04/09 05:43:31;;;;;;;17.43;15.60;;;;;;;0.92;nan;97752.88;4939930;28;21197;-66
2023/04/09 05:45:59;;;;;;;17.53;15.73;;;;;;;0.80;nan;97754.63;4924965;28;20229;-66
2023/04/09 05:48:26;;;;;;;18.50;16.47;;;;;;;0.72;nan;97755.97;4928073;28;20218;-66
2023/04/09 05:50:54;;;;;;;18.30;16.40;;;;;;;0.76;nan;97756.59;4955001;28;21012;-65
2023/04/09 05:53:22;;;;;;;17.60;15.87;;;;;;;0.90;nan;97760.00;4936837;28;20209;-66
2023/04/09 05:55:50;;;;;;;17.83;15.53;;;;;;;1.12;nan;97761.91;4955345;28;20315;-66
2023/04/09 05:58:18;;;;;;;23.15;20.75;;;;;;;1.42;nan;97768.47;4951582;28;20470;-66
2023/04/09 06:00:47;;;;;;;22.37;20.00;;;;;;;1.69;nan;97763.00;4914250;28;20209;-66
2023/04/09 06:03:15;;;;;;;22.73;19.73;;;;;;;1.82;nan;97762.09;4939652;28;20218;-67
2023/04/09 06:05:45;;;;;;;22.93;20.20;;;;;;;1.99;nan;97766.06;4958533;28;20233;-66
2023/04/09 06:08:13;;;;;;;21.53;19.23;;;;;;;1.81;nan;97756.03;4934774;28;20222;-66
2023/04/09 06:10:41;;;;;;;22.17;19.87;;;;;;;1.75;nan;97753.88;4956193;28;20237;-65
2023/04/09 06:13:09;;;;;;;22.27;19.60;;;;;;;1.77;nan;97756.38;4954211;28;20218;-65
2023/04/09 06:15:37;;;;;;;21.70;19.57;;;;;;;2.12;nan;97752.91;4943774;28;21116;-65
2023/04/09 06:18:06;;;;;;;24.50;21.43;;;;;;;2.40;nan;97751.63;4928392;28;20218;-65
2023/04/09 06:20:34;;;;;;;23.97;20.63;;;;;;;2.42;nan;97749.72;4932629;28;20210;-66
2023/04/09 06:23:02;;;;;;;22.73;20.33;;;;;;;2.50;nan;97749.13;4953782;28;20690;-65
2023/04/09 06:25:29;;;;;;;24.13;21.57;;;;;;;2.60;nan;97752.69;4940997;28;20800;-66
2023/04/09 06:27:57;;;;;;;22.80;20.37;;;;;;;2.62;nan;97752.56;4950946;28;20220;-66
2023/04/09 06:30:25;;;;;;;23.73;19.50;;;;;;;2.62;nan;97754.34;4947691;28;20718;-69
2023/04/09 06:32:52;;;;;;;20.70;18.50;;;;;;;2.59;nan;97750.19;4930895;28;21197;-64
2023/04/09 06:35:23;;;;;;;20.67;18.57;;;;;;;2.51;nan;97747.34;4933341;28;20299;-66
2023/04/09 06:37:51;;;;;;;21.30;19.00;;;;;;;2.57;nan;97747.69;4956883;28;20198;-64
2023/04/09 06:40:19;;;;;;;19.40;17.47;;;;;;;2.49;nan;97751.84;4940041;28;20244;-65
2023/04/09 06:42:49;;;;;;;19.77;16.63;;;;;;;2.49;nan;97754.47;4958298;28;20279;-66
2023/04/09 06:45:17;;;;;;;21.60;19.43;;;;;;;2.60;nan;97757.06;4936853;28;20237;-65
2023/04/09 06:47:44;;;;;;;20.27;17.97;;;;;;;2.70;nan;97762.44;4942863;28;20279;-65
2023/04/09 06:50:12;;;;;;;21.90;18.30;;;;;;;2.77;nan;97757.56;4924956;28;20240;-64
2023/04/09 06:52:41;;;;;;;20.17;18.07;;;;;;;2.75;nan;97753.28;4913149;28;20812;-65
2023/04/09 06:55:10;;;;;;;20.40;17.90;;;;;;;2.74;nan;97763.84;4938854;28;20269;-65
2023/04/09 06:57:38;;;;;;;22.77;18.87;;;;;;;2.85;nan;97766.47;4938955;28;20231;-66
2023/04/09 07:00:08;;;;;;;20.93;18.60;;;;;;;2.86;nan;97759.44;4953682;28;20217;-68
2023/04/09 07:02:36;;;;;;;22.43;18.53;;;;;;;3.01;nan;97754.78;4937419;28;20613;-65
2023/04/09 07:05:04;;;;;;;21.70;18.90;;;;;;;3.15;nan;97766.78;4908896;28;20299;-66
2023/04/09 07:07:32;;;;;;;21.37;19.17;;;;;;;3.22;nan;97759.25;4931036;28;20284;-64
2023/04/09 07:10:01;;;;;;;19.20;17.33;;;;;;;3.28;nan;97754.34;4939632;28;20233;-65
2023/04/09 07:12:29;;;;;;;25.77;23.33;;;;;;;3.38;nan;97759.69;4950825;28;21335;-64
2023/04/09 07:14:58;;;;;;;25.23;22.98;;;;;;;3.56;nan;97753.91;4952953;28;20457;-66
2023/04/09 07:17:25;;;;;;;21.17;19.13;;;;;;;3.64;nan;97759.38;4946079;28;20280;-65
2023/04/09 07:19:53;;;;;;;19.10;17.20;;;;;;;3.35;nan;97761.72;4927339;28;20276;-64
2023/04/09 07:22:21;;;;;;;20.53;18.50;;;;;;;3.32;nan;97758.38;4926868;28;20473;-68
2023/04/09 07:24:52;;;;;;;19.97;17.87;;;;;;;3.44;nan;97753.94;4939003;28;20230;-67
2023/04/09 07:27:22;;;;;;;17.90;16.00;;;;;;;3.66;nan;97757.44;4945367;28;20210;-67
2023/04/09 07:29:50;;;;;;;19.13;17.13;;;;;;;3.54;nan;97756.66;4956314;28;20216;-68
2023/04/09 07:32:17;;;;;;;19.03;17.07;;;;;;;3.58;nan;97763.31;4937464;28;20938;-67
2023/04/09 07:34:45;;;;;;;19.63;17.63;;;;;;;3.78;nan;97754.75;4915933;28;20214;-68
2023/04/09 07:37:13;;;;;;;19.83;17.67;;;;;;;3.78;nan;97758.22;4932319;28;20201;-68
2023/04/09 07:39:41;;;;;;;19.60;17.57;;;;;;;3.88;nan;97759.13;4955368;28;20256;-67
2023/04/09 07:42:09;;;;;;;22.00;18.37;;;;;;;4.01;nan;97763.34;4934126;28;20228;-67
2023/04/09 07:44:38;;;;;;;21.43;19.20;;;;;;;3.96;nan;97766.34;4953878;28;20739;-66
2023/04/09 07:47:07;;;;;;;22.13;18.53;;;;;;;3.86;nan;97749.72;4949425;28;20205;-66
2023/04/09 07:49:35;;;;;;;21.70;19.50;;;;;;;4.04;nan;97761.31;4916233;28;20911;-67
2023/04/09 07:52:04;;;;;;;21.50;19.23;;;;;;;4.11;nan;97764.22;4941716;28;20221;-66
2023/04/09 07:54:33;;;;;;;21.03;18.77;;;;;;;4.32;nan;97763.38;4936575;28;20233;-66
2023/04/09 07:57:01;;;;;;;21.70;19.50;;;;;;;4.47;nan;97761.25;4932406;28;20351;-64
2023/04/09 07:59:30;;;;;;;22.33;19.87;;;;;;;4.63;nan;97756.34;4950211;28;20532;-66
2023/04/09 08:01:59;;;;;;;22.63;20.33;;;;;;;4.76;nan;97753.50;4953511;28;20237;-67
2023/04/09 08:04:27;;;;;;;22.27;19.87;;;;;;;4.67;nan;97753.44;4938466;28;20240;-65
2023/04/09 08:06:55;;;;;;;21.23;18.97;;;;;;;4.45;nan;97734.31;4918135;28;20595;-66
2023/04/09 08:09:22;;;;;;;21.60;19.30;;;;;;;4.74;nan;97741.47;4908532;28;20585;-66
2023/04/09 08:11:50;;;;;;;22.03;19.63;;;;;;;4.88;nan;97751.59;4958100;28;20256;-65
2023/04/09 08:14:18;;;;;;;22.33;19.93;;;;;;;5.07;nan;97749.97;4941212;28;20649;-66
2023/04/09 08:16:47;;;;;;;20.90;18.73;;;;;;;5.22;nan;97742.53;4941951;28;20264;-67
2023/04/09 08:19:17;;;;;;;21.00;18.77;;;;;;;5.24;nan;97739.78;4950864;28;20550;-68
2023/04/09 08:21:47;;;;;;;21.27;19.07;;;;;;;5.32;nan;97742.56;4896266;28;20644;-66
2023/04/09 08:24:15;;;;;;;23.33;20.63;;;;;;;5.39;nan;97743.66;4930450;28;20222;-67
2023/04/09 08:26:43;;;;;;;21.20;19.10;;;;;;;5.50;nan;97751.44;4940479;28;20229;-68
2023/04/09 08:29:12;;;;;;;21.97;19.67;;;;;;;5.74;nan;97752.81;4941262;28;20214;-67
2023/04/09 08:31:40;;;;;;;22.50;19.27;;;;;;;5.69;nan;97744.50;4944417;28;21172;-68
2023/04/09 08:34:07;;;;;;;22.60;20.20;;;;;;;5.72;nan;97748.69;4953708;28;20457;-66
2023/04/09 08:36:37;;;;;;;22.73;20.30;;;;;;;6.08;nan;97746.31;4909103;28;20217;-68
2023/04/09 08:39:04;;;;;;;21.30;19.10;;;;;;;5.98;nan;97733.13;4925141;28;20778;-68
2023/04/09 08:41:32;;;;;;;23.70;20.07;;;;;;;6.11;nan;97739.91;4952669;28;20226;-68
2023/04/09 08:44:00;;;;;;;20.93;18.80;;;;;;;6.54;nan;97735.91;4939277;28;20206;-67
2023/04/09 08:46:28;;;;;;;23.37;20.20;;;;;;;6.46;nan;97734.00;4943279;28;20226;-68
2023/04/09 08:48:56;;;;;;;23.70;21.17;;;;;;;7.19;nan;97736.81;4940541;28;20221;-68
2023/04/09 08:51:24;;;;;;;23.30;20.80;;;;;;;7.37;nan;97735.03;4945232;28;20248;-66
2023/04/09 08:53:56;;;;;;;22.37;20.00;;;;;;;7.29;nan;97744.66;4905267;28;20943;-67
2023/04/09 08:56:24;;;;;;;21.87;19.77;;;;;;;7.17;nan;97744.88;4939406;28;20229;-67
2023/04/09 08:58:52;;;;;;;22.23;19.10;;;;;;;6.92;nan;97746.41;4939978;28;20761;-67
2023/04/09 09:01:21;;;;;;;22.17;19.80;;;;;;;6.98;nan;97760.78;4941946;28;20245;-68
2023/04/09 09:03:54;;;;;;;21.17;18.97;;;;;;;7.09;nan;97760.63;4954346;28;20202;-68
2023/04/09 09:06:23;;;;;;;21.83;19.53;;;;;;;7.32;nan;97763.66;4945169;28;20221;-69
2023/04/09 09:09:03;;;;;;;21.27;19.23;;;;;;;7.41;nan;97764.59;4928250;28;20205;-67
2023/04/09 09:11:31;;;;;;;20.03;18.03;;;;;;;7.52;nan;97768.78;4913522;28;20792;-67
2023/04/09 09:14:01;;;;;;;19.23;17.27;;;;;;;7.62;nan;97759.00;4958780;28;20214;-66
2023/04/09 09:16:28;;;;;;;20.40;18.30;;;;;;;8.02;nan;97753.41;4924245;28;20737;-66
2023/04/09 09:18:56;;;;;;;20.70;18.60;;;;;;;8.20;nan;97748.91;4962517;28;20690;-66
2023/04/09 09:21:26;;;;;;;20.23;18.27;;;;;;;8.26;nan;97758.84;4935126;28;20617;-67
2023/04/09 09:23:54;;;;;;;18.70;16.83;;;;;;;8.50;nan;97746.81;4901782;28;21105;-65
2023/04/09 09:26:24;;;;;;;18.97;17.23;;;;;;;8.67;nan;97750.34;4913397;28;20455;-65
2023/04/09 09:28:52;;;;;;;18.13;16.33;;;;;;;8.84;nan;97758.34;4938439;28;20212;-66
2023/04/09 09:31:21;;;;;;;18.90;17.07;;;;;;;9.17;nan;97747.88;4925688;28;20692;-65
2023/04/09 09:33:50;;;;;;;19.07;17.17;;;;;;;9.05;nan;97744.72;4953960;28;20210;-65
2023/04/09 09:36:31;;;;;;;17.87;16.20;;;;;;;8.90;nan;97744.53;4950483;28;20210;-65
2023/04/09 09:39:02;;;;;;;18.00;16.10;;;;;;;8.44;nan;97731.56;4939245;28;20210;-66
2023/04/09 09:41:31;;;;;;;18.60;16.90;;;;;;;8.40;nan;97732.84;4913370;28;20927;-66
2023/04/09 09:43:59;;;;;;;17.73;16.03;;;;;;;8.48;nan;97732.06;4939568;28;20673;-66
2023/04/09 09:46:27;;;;;;;18.33;16.57;;;;;;;8.18;nan;97739.50;4937254;28;20982;-66
2023/04/09 09:48:55;;;;;;;18.30;16.63;;;;;;;8.16;nan;97733.53;4945060;28;20206;-65
2023/04/09 09:51:27;;;;;;;17.73;15.93;;;;;;;8.35;nan;97737.78;4954449;28;20288;-65
2023/04/09 09:53:56;;;;;;;19.43;17.43;;;;;;;8.57;nan;97746.16;4941762;28;20264;-65
2023/04/09 09:56:31;;;;;;;18.30;16.50;;;;;;;8.83;nan;97735.53;4903928;28;20304;-66
2023/04/09 09:59:07;;;;;;;15.77;14.30;;;;;;;9.14;nan;97742.13;4956208;28;20214;-65
2023/04/09 10:01:35;;;;;;;15.90;14.40;;;;;;;8.81;nan;97737.53;4934263;28;20229;-67
2023/04/09 10:04:06;;;;;;;16.23;14.63;;;;;;;9.01;nan;97737.28;4949508;28;20216;-67
2023/04/09 10:06:34;;;;;;;16.10;14.70;;;;;;;8.95;nan;97731.66;4942967;28;20238;-67
2023/04/09 10:09:05;;;;;;;18.47;16.70;;;;;;;9.39;nan;97722.66;4953683;28;20217;-69
2023/04/09 10:11:33;;;;;;;16.40;14.67;;;;;;;9.35;nan;97720.50;4892257;28;20525;-66
2023/04/09 10:14:04;;;;;;;16.93;15.33;;;;;;;9.33;nan;97722.50;4952173;28;20267;-66
2023/04/09 10:16:32;;;;;;;16.57;14.93;;;;;;;9.33;nan;97717.19;4937746;28;20936;-66
2023/04/09 10:19:01;;;;;;;17.43;15.07;;;;;;;9.33;nan;97720.66;4959409;28;20217;-66
2023/04/09 10:21:37;;;;;;;17.90;16.20;;;;;;;9.49;nan;97714.56;4934229;28;21149;-67
2023/04/09 10:24:06;;;;;;;17.27;15.60;;;;;;;9.57;nan;97719.03;4952301;28;20237;-67
2023/04/09 10:26:35;;;;;;;17.67;15.97;;;;;;;9.30;nan;97710.41;4925342;28;20424;-67
2023/04/09 10:29:10;;;;;;;16.97;15.40;;;;;;;9.21;nan;97701.63;4929868;28;20221;-66
2023/04/09 10:31:49;;;;;;;15.70;14.20;;;;;;;9.22;nan;97707.75;4943063;28;20225;-66
2023/04/09 10:34:17;;;;;;;16.53;14.93;;;;;;;9.06;nan;97713.84;4935144;28;20288;-65
2023/04/09 10:36:46;;;;;;;16.87;15.13;;;;;;;9.27;nan;97706.25;4939617;28;20220;-66
2023/04/09 10:39:14;;;;;;;17.17;15.57;;;;;;;9.94;nan;97703.66;4948533;28;20233;-66
2023/04/09 10:41:43;;;;;;;16.13;14.73;;;;;;;10.28;nan;97692.84;4929263;28;20787;-66
2023/04/09 10:44:21;;;;;;;16.70;15.20;;;;;;;10.42;nan;97703.75;4931005;28;20221;-67
2023/04/09 10:46:50;;;;;;;17.73;16.13;;;;;;;10.14;nan;97702.31;4954147;28;20229;-66
2023/04/09 10:49:19;;;;;;;16.57;14.97;;;;;;;10.21;nan;97706.94;4918163;28;20949;-66
2023/04/09 10:52:02;;;;;;;17.70;15.90;;;;;;;10.11;nan;97707.94;4938398;28;20229;-65
2023/04/09 10:54:44;;;;;;;16.50;15.00;;;;;;;9.73;nan;97712.94;4952278;28;20201;-65
2023/04/09 10:57:21;;;;;;;17.10;15.50;;;;;;;9.04;nan;97719.25;4921639;28;20213;-66
2023/04/09 10:59:52;;;;;;;16.53;15.03;;;;;;;9.04;nan;97716.63;4930079;28;20217;-64
2023/04/09 11:02:59;;;;;;;17.40;15.80;;;;;;;9.24;nan;97711.06;4952109;28;20241;-66
2023/04/09 11:05:32;;;;;;;18.03;16.23;;;;;;;9.59;nan;97710.94;4938880;28;20853;-65
2023/04/09 11:08:08;;;;;;;19.73;17.57;;;;;;;9.88;nan;97705.16;4927616;28;20238;-64
2023/04/09 11:10:36;;;;;;;17.00;15.30;;;;;;;10.18;nan;97704.63;4956819;28;20240;-67
2023/04/09 11:13:04;;;;;;;17.17;15.47;;;;;;;10.32;nan;97693.31;4910693;28;20971;-65
2023/04/09 11:15:35;;;;;;;17.10;15.40;;;;;;;10.38;nan;97692.63;4929217;28;20213;-66
2023/04/09 11:18:03;;;;;;;14.70;13.43;;;;;;;10.01;nan;97699.31;4949133;28;20435;-66
2023/04/09 11:20:33;;;;;;;18.17;16.53;;;;;;;9.95;nan;97692.91;4934000;28;20225;-66
2023/04/09 11:23:01;;;;;;;14.57;13.27;;;;;;;9.86;nan;97693.91;4947893;28;20201;-66
2023/04/09 11:25:31;;;;;;;15.43;14.03;;;;;;;9.88;nan;97691.94;4954560;28;20210;-66
2023/04/09 11:28:00;;;;;;;15.03;13.73;;;;;;;10.38;nan;97681.22;4948601;28;20246;-67
2023/04/09 11:30:27;;;;;;;16.00;14.50;;;;;;;10.81;nan;97689.69;4881740;28;20641;-65
2023/04/09 11:32:57;;;;;;;16.73;15.03;;;;;;;11.46;nan;97678.84;4934909;28;20238;-66
2023/04/09 11:35:25;;;;;;;15.27;13.80;;;;;;;11.48;nan;97687.47;4931799;28;20214;-65
2023/04/09 11:37:53;;;;;;;14.93;13.53;;;;;;;11.07;nan;97679.78;4950982;28;20205;-66
2023/04/09 11:40:22;;;;;;;14.37;13.07;;;;;;;10.90;nan;97681.69;4953545;28;20382;-65
2023/04/09 11:42:51;;;;;;;13.80;12.40;;;;;;;11.02;nan;97682.97;4956702;28;20441;-66
2023/04/09 11:45:20;;;;;;;14.00;12.80;;;;;;;10.92;nan;97685.00;4912868;28;20745;-66
2023/04/09 11:47:47;;;;;;;13.77;12.57;;;;;;;10.77;nan;97664.53;4957889;28;20547;-66
2023/04/09 11:50:17;;;;;;;12.90;11.70;;;;;;;10.84;nan;97673.44;4942447;28;20859;-66